createdAt,value
2018-02-24T00:00:15.968Z,-2.70
2018-02-24T00:02:46.006Z,-2.70
2018-02-24T00:05:12.323Z,-2.70
2018-02-24T00:07:38.540Z,-2.80
2018-02-24T00:10:04.736Z,-2.80
2018-02-24T00:12:32.008Z,-2.80
2018-02-24T00:14:58.269Z,-2.80
2018-02-24T00:17:24.516Z,-2.80
2018-02-24T00:19:50.918Z,-2.80
2018-02-24T00:22:17.168Z,-2.80
2018-02-24T00:24:43.396Z,-2.80
2018-02-24T00:27:09.821Z,-2.80
2018-02-24T00:29:36.042Z,-2.90
2018-02-24T00:32:02.308Z,-2.90
2018-02-24T00:34:28.648Z,-2.90
2018-02-24T00:36:54.879Z,-2.90
2018-02-24T00:39:21.104Z,-2.90
2018-02-24T00:41:47.428Z,-3.00
2018-02-24T00:44:13.628Z,-3.00
2018-02-24T00:46:39.853Z,-3.00
2018-02-24T00:49:06.406Z,-3.10
2018-02-24T00:51:32.693Z,-3.10
2018-02-24T00:53:58.913Z,-3.10
2018-02-24T00:56:25.967Z,-3.20
2018-02-24T00:58:52.256Z,-3.20
2018-02-24T01:01:18.500Z,-3.20
2018-02-24T01:03:44.758Z,-3.20
2018-02-24T01:06:11.222Z,-3.20
2018-02-24T01:08:37.472Z,-3.20
2018-02-24T01:11:03.689Z,-3.30
2018-02-24T01:13:30.222Z,-3.30
2018-02-24T01:15:56.441Z,-3.30
2018-02-24T01:18:22.701Z,-3.30
2018-02-24T01:20:49.157Z,-3.30
2018-02-24T01:23:15.462Z,-3.30
2018-02-24T01:25:42.387Z,-3.40
2018-02-24T01:28:08.632Z,-3.40
2018-02-24T01:30:34.822Z,-3.40
2018-02-24T01:33:01.064Z,-3.40
2018-02-24T01:35:27.321Z,-3.40
2018-02-24T01:37:53.727Z,-3.40
2018-02-24T01:40:19.960Z,-3.40
2018-02-24T01:42:47.013Z,-3.40
2018-02-24T01:45:14.216Z,-3.40
2018-02-24T01:47:40.435Z,-3.50
2018-02-24T01:50:06.721Z,-3.50
2018-02-24T01:52:32.966Z,-3.50
2018-02-24T01:54:59.353Z,-3.50
2018-02-24T01:57:25.635Z,-3.50
2018-02-24T01:59:51.887Z,-3.50
2018-02-24T02:02:18.596Z,-3.50
2018-02-24T02:04:44.972Z,-3.60
2018-02-24T02:07:11.188Z,-3.60
2018-02-24T02:09:37.732Z,-3.60
2018-02-24T02:12:05.179Z,-3.60
2018-02-24T02:14:31.397Z,-3.60
2018-02-24T02:16:57.637Z,-3.60
2018-02-24T02:19:24.089Z,-3.60
2018-02-24T02:21:50.360Z,-3.70
2018-02-24T02:24:17.379Z,-3.70
2018-02-24T02:26:43.791Z,-3.70
2018-02-24T02:29:10.060Z,-3.70
2018-02-24T02:31:36.324Z,-3.80
2018-02-24T02:34:03.439Z,-3.80
2018-02-24T02:36:30.770Z,-3.80
2018-02-24T02:38:57.729Z,-3.90
2018-02-24T02:41:24.005Z,-3.90
2018-02-24T02:43:50.203Z,-3.90
2018-02-24T02:46:16.482Z,-3.90
2018-02-24T02:48:43.519Z,-4.00
2018-02-24T02:51:10.480Z,-4.00
2018-02-24T02:53:36.885Z,-4.00
2018-02-24T02:56:03.172Z,-4.00
2018-02-24T02:58:30.125Z,-4.10
2018-02-24T03:00:56.376Z,-4.10
2018-02-24T03:03:22.689Z,-4.10
2018-02-24T03:05:48.945Z,-4.10
2018-02-24T03:08:15.137Z,-4.10
2018-02-24T03:10:41.511Z,-4.10
2018-02-24T03:13:08.484Z,-4.20
2018-02-24T03:15:35.449Z,-4.20
2018-02-24T03:18:02.421Z,-4.20
2018-02-24T03:20:29.953Z,-4.20
2018-02-24T03:22:56.208Z,-4.20
2018-02-24T03:25:22.422Z,-4.20
2018-02-24T03:27:48.759Z,-4.20
2018-02-24T03:30:14.946Z,-4.20
2018-02-24T03:32:41.183Z,-4.20
2018-02-24T03:35:09.246Z,-4.30
2018-02-24T03:37:35.750Z,-4.30
2018-02-24T03:40:01.957Z,-4.30
2018-02-24T03:42:28.957Z,-4.30
2018-02-24T03:44:55.184Z,-4.30
2018-02-24T03:47:21.424Z,-4.30
2018-02-24T03:49:47.689Z,-4.30
2018-02-24T03:52:13.909Z,-4.30
2018-02-24T03:54:40.171Z,-4.30
2018-02-24T03:57:06.435Z,-4.30
2018-02-24T03:59:32.652Z,-4.30
2018-02-24T04:01:58.869Z,-4.40
2018-02-24T04:04:25.166Z,-4.40
2018-02-24T04:06:51.390Z,-4.30
2018-02-24T04:09:17.763Z,-4.40
2018-02-24T04:11:43.996Z,-4.40
2018-02-24T04:14:10.254Z,-4.40
2018-02-24T04:16:37.263Z,-4.40
2018-02-24T04:19:03.473Z,-4.40
2018-02-24T04:21:29.701Z,-4.40
2018-02-24T04:23:56.669Z,-4.40
2018-02-24T04:26:23.712Z,-4.40
2018-02-24T04:28:50.707Z,-4.40
2018-02-24T04:31:16.928Z,-4.50
2018-02-24T04:33:43.434Z,-4.50
2018-02-24T04:36:09.644Z,-4.50
2018-02-24T04:38:35.870Z,-4.50
2018-02-24T04:41:02.203Z,-4.50
2018-02-24T04:43:28.432Z,-4.50
2018-02-24T04:45:55.412Z,-4.50
2018-02-24T04:48:21.872Z,-4.50
2018-02-24T04:50:48.914Z,-4.50
2018-02-24T04:53:15.173Z,-4.60
2018-02-24T04:55:41.399Z,-4.60
2018-02-24T04:58:07.791Z,-4.60
2018-02-24T05:00:34.007Z,-4.60
2018-02-24T05:03:00.219Z,-4.60
2018-02-24T05:05:26.685Z,-4.60
2018-02-24T05:07:52.891Z,-4.60
2018-02-24T05:10:19.833Z,-4.60
2018-02-24T05:12:46.061Z,-4.60
2018-02-24T05:15:12.315Z,-4.60
2018-02-24T05:17:38.540Z,-4.60
2018-02-24T05:20:04.769Z,-4.60
2018-02-24T05:22:31.970Z,-4.60
2018-02-24T05:24:58.174Z,-4.60
2018-02-24T05:27:24.412Z,-4.70
2018-02-24T05:29:50.809Z,-4.70
2018-02-24T05:32:17.808Z,-4.60
2018-02-24T05:34:44.059Z,-4.60
2018-02-24T05:37:10.317Z,-4.70
2018-02-24T05:39:36.629Z,-4.70
2018-02-24T05:42:02.861Z,-4.70
2018-02-24T05:44:29.102Z,-4.70
2018-02-24T05:46:55.368Z,-4.70
2018-02-24T05:49:21.612Z,-4.70
2018-02-24T05:51:47.828Z,-4.70
2018-02-24T05:54:14.178Z,-4.70
2018-02-24T05:56:40.389Z,-4.70
2018-02-24T05:59:07.340Z,-4.70
2018-02-24T06:01:34.336Z,-4.70
2018-02-24T06:04:00.558Z,-4.80
2018-02-24T06:06:26.758Z,-4.80
2018-02-24T06:08:53.033Z,-4.80
2018-02-24T06:11:20.028Z,-4.80
2018-02-24T06:13:46.239Z,-4.80
2018-02-24T06:16:12.474Z,-4.80
2018-02-24T06:18:39.678Z,-4.80
2018-02-24T06:21:05.894Z,-4.80
2018-02-24T06:23:32.110Z,-4.80
2018-02-24T06:25:58.644Z,-4.80
2018-02-24T06:28:28.253Z,-4.80
2018-02-24T06:30:54.656Z,-4.80
2018-02-24T06:33:20.929Z,-4.80
2018-02-24T06:35:47.231Z,-4.70
2018-02-24T06:38:13.632Z,-4.70
2018-02-24T06:40:43.425Z,-4.60
2018-02-24T06:43:09.692Z,-4.60
2018-02-24T06:45:40.174Z,-4.50
2018-02-24T06:48:06.456Z,-4.60
2018-02-24T06:50:32.675Z,-4.50
2018-02-24T06:52:59.048Z,-4.40
2018-02-24T06:55:25.228Z,-4.40
2018-02-24T06:57:55.995Z,-4.40
2018-02-24T07:00:23.526Z,-4.30
2018-02-24T07:02:50.627Z,-4.20
2018-02-24T07:05:16.851Z,-4.20
2018-02-24T07:07:43.826Z,-4.00
2018-02-24T07:10:10.173Z,-4.00
2018-02-24T07:12:36.361Z,-3.70
2018-02-24T07:15:02.648Z,-3.60
2018-02-24T07:17:29.103Z,-3.40
2018-02-24T07:19:55.364Z,-3.20
2018-02-24T07:22:21.581Z,-3.10
2018-02-24T07:24:47.994Z,-3.00
2018-02-24T07:27:14.159Z,-3.20
2018-02-24T07:29:40.376Z,-3.30
2018-02-24T07:32:07.048Z,-3.30
2018-02-24T07:34:34.022Z,-3.40
2018-02-24T07:37:00.228Z,-3.40
2018-02-24T07:39:28.462Z,-3.30
2018-02-24T07:41:54.820Z,-3.30
2018-02-24T07:44:21.056Z,-3.20
2018-02-24T07:46:47.240Z,-3.30
2018-02-24T07:49:14.219Z,-3.20
2018-02-24T07:51:40.681Z,-3.30
2018-02-24T07:54:06.893Z,-3.10
2018-02-24T07:56:33.819Z,-3.10
2018-02-24T07:59:00.101Z,-3.10
2018-02-24T08:01:26.435Z,-3.10
2018-02-24T08:03:53.356Z,-2.90
2018-02-24T08:06:19.784Z,-2.90
2018-02-24T08:08:45.992Z,-2.90
2018-02-24T08:11:12.235Z,-2.80
2018-02-24T08:13:38.462Z,-2.70
2018-02-24T08:16:04.672Z,-2.70
2018-02-24T08:18:30.901Z,-2.60
2018-02-24T08:20:57.148Z,-2.50
2018-02-24T08:23:23.431Z,-2.40
2018-02-24T08:25:49.661Z,-2.40
2018-02-24T08:28:16.638Z,-2.20
2018-02-24T08:30:43.790Z,-2.10
2018-02-24T08:33:11.534Z,-2.10
2018-02-24T08:35:38.736Z,-2.00
2018-02-24T08:38:05.677Z,-1.90
2018-02-24T08:40:31.872Z,-1.90
2018-02-24T08:42:58.217Z,-1.90
2018-02-24T08:45:24.410Z,-1.80
2018-02-24T08:47:51.358Z,-1.80
2018-02-24T08:50:18.535Z,-1.60
2018-02-24T08:52:45.612Z,-1.50
2018-02-24T08:55:11.812Z,-1.50
2018-02-24T08:57:38.728Z,-1.40
2018-02-24T09:00:05.040Z,-1.40
2018-02-24T09:02:32.016Z,-1.20
2018-02-24T09:04:58.204Z,-1.20
2018-02-24T09:07:24.400Z,-1.10
2018-02-24T09:09:50.608Z,-1.10
2018-02-24T09:12:16.779Z,-1.00
2018-02-24T09:14:42.950Z,-0.90
2018-02-24T09:17:09.164Z,-0.80
2018-02-24T09:19:35.347Z,-0.70
2018-02-24T09:22:01.546Z,-0.70
2018-02-24T09:24:27.712Z,-0.50
2018-02-24T09:26:53.904Z,-0.40
2018-02-24T09:29:20.835Z,-0.20
2018-02-24T09:31:47.139Z,-0.20
2018-02-24T09:34:13.317Z,-0.10
2018-02-24T09:36:39.501Z,0.10
2018-02-24T09:39:05.777Z,0.20
2018-02-24T09:41:31.947Z,0.30
2018-02-24T09:43:58.123Z,0.40
2018-02-24T09:46:24.382Z,0.50
2018-02-24T09:48:50.572Z,0.60
2018-02-24T09:51:17.481Z,0.80
2018-02-24T09:53:43.990Z,0.80
2018-02-24T09:56:10.151Z,0.90
2018-02-24T09:58:36.353Z,1.00
2018-02-24T10:01:02.694Z,1.20
2018-02-24T10:03:28.876Z,1.30
2018-02-24T10:05:55.072Z,1.40
2018-02-24T10:08:21.406Z,1.50
2018-02-24T10:10:47.635Z,1.60
2018-02-24T10:13:13.883Z,1.70
2018-02-24T10:15:40.310Z,1.80
2018-02-24T10:18:06.489Z,1.90
2018-02-24T10:20:32.663Z,2.00
2018-02-24T10:22:59.581Z,2.20
2018-02-24T10:25:25.927Z,2.20
2018-02-24T10:27:52.093Z,2.20
2018-02-24T10:30:18.273Z,2.30
2018-02-24T10:32:44.640Z,2.40
2018-02-24T10:35:10.859Z,2.50
2018-02-24T10:37:37.027Z,2.50
2018-02-24T10:40:03.592Z,2.70
2018-02-24T10:42:30.520Z,2.90
2018-02-24T10:44:56.719Z,2.80
2018-02-24T10:47:23.133Z,3.00
2018-02-24T10:49:50.091Z,3.10
2018-02-24T10:52:16.357Z,3.10
2018-02-24T10:54:42.532Z,3.20
2018-02-24T10:57:08.866Z,3.30
2018-02-24T10:59:35.115Z,3.40
2018-02-24T11:02:01.295Z,3.50
2018-02-24T11:04:27.593Z,3.50
2018-02-24T11:06:53.776Z,3.50
2018-02-24T11:09:20.034Z,3.60
2018-02-24T11:11:46.552Z,3.70
2018-02-24T11:14:12.743Z,3.80
2018-02-24T11:16:38.937Z,3.80
2018-02-24T11:19:05.352Z,3.90
2018-02-24T11:21:31.515Z,4.00
2018-02-24T11:23:57.726Z,4.00
2018-02-24T11:26:24.048Z,4.10
2018-02-24T11:28:50.224Z,4.10
2018-02-24T11:31:16.384Z,4.20
2018-02-24T11:33:42.723Z,4.30
2018-02-24T11:36:08.992Z,4.40
2018-02-24T11:38:35.944Z,4.60
2018-02-24T11:41:02.859Z,4.80
2018-02-24T11:43:29.236Z,4.70
2018-02-24T11:45:55.432Z,4.70
2018-02-24T11:48:21.609Z,4.80
2018-02-24T11:50:47.914Z,4.90
2018-02-24T11:53:14.084Z,5.00
2018-02-24T11:55:40.317Z,5.20
2018-02-24T11:58:06.608Z,5.20
2018-02-24T12:00:33.521Z,5.40
2018-02-24T12:02:59.700Z,5.40
2018-02-24T12:05:26.743Z,5.70
2018-02-24T12:07:52.900Z,5.60
2018-02-24T12:10:19.908Z,6.00
2018-02-24T12:12:46.121Z,5.90
2018-02-24T12:15:13.207Z,6.20
2018-02-24T12:17:39.400Z,6.20
2018-02-24T12:20:06.312Z,6.50
2018-02-24T12:22:32.712Z,6.50
2018-02-24T12:24:58.869Z,6.40
2018-02-24T12:27:25.061Z,6.50
2018-02-24T12:29:52.173Z,6.70
2018-02-24T12:32:19.043Z,6.90
2018-02-24T12:34:45.242Z,6.70
2018-02-24T12:37:11.416Z,6.70
2018-02-24T12:39:37.654Z,6.80
2018-02-24T12:42:03.820Z,6.90
2018-02-24T12:44:30.116Z,7.10
2018-02-24T12:46:56.510Z,6.90
2018-02-24T12:49:22.716Z,7.20
2018-02-24T12:51:48.893Z,7.60
2018-02-24T12:54:15.211Z,7.80
2018-02-24T12:56:41.388Z,7.30
2018-02-24T12:59:07.648Z,7.30
2018-02-24T13:01:34.569Z,7.60
2018-02-24T13:04:00.773Z,7.60
2018-02-24T13:06:26.920Z,7.50
2018-02-24T13:08:53.103Z,7.50
2018-02-24T13:11:19.323Z,7.30
2018-02-24T13:13:45.495Z,7.20
2018-02-24T13:16:11.701Z,7.20
2018-02-24T13:18:37.881Z,7.20
2018-02-24T13:21:04.789Z,5.80
2018-02-24T13:23:30.974Z,5.80
2018-02-24T13:25:57.356Z,6.10
2018-02-24T13:28:23.532Z,6.10
2018-02-24T13:30:49.748Z,6.00
2018-02-24T13:33:16.148Z,5.90
2018-02-24T13:35:43.088Z,5.70
2018-02-24T13:38:09.409Z,5.70
2018-02-24T13:40:35.845Z,5.20
2018-02-24T13:43:02.055Z,5.40
2018-02-24T13:45:28.212Z,5.60
2018-02-24T13:47:54.599Z,5.50
2018-02-24T13:50:20.893Z,5.40
2018-02-24T13:52:47.099Z,5.30
2018-02-24T13:55:13.472Z,5.20
2018-02-24T13:57:39.694Z,4.90
2018-02-24T14:00:06.665Z,4.70
2018-02-24T14:02:32.869Z,4.70
2018-02-24T14:04:59.109Z,4.90
2018-02-24T14:07:25.327Z,4.90
2018-02-24T14:09:51.512Z,4.90
2018-02-24T14:12:18.465Z,4.80
2018-02-24T14:14:44.649Z,4.80
2018-02-24T14:17:10.865Z,4.70
2018-02-24T14:19:37.980Z,4.50
2018-02-24T14:22:04.161Z,4.50
2018-02-24T14:24:31.081Z,4.40
2018-02-24T14:26:57.276Z,4.40
2018-02-24T14:29:23.637Z,4.30
2018-02-24T14:31:49.815Z,4.40
2018-02-24T14:34:16.005Z,4.30
2018-02-24T14:36:42.344Z,4.20
2018-02-24T14:39:08.537Z,4.10
2018-02-24T14:41:34.708Z,4.10
2018-02-24T14:44:01.877Z,4.20
2018-02-24T14:46:28.047Z,4.20
2018-02-24T14:48:54.215Z,4.20
2018-02-24T14:51:20.492Z,4.10
2018-02-24T14:53:46.664Z,4.20
2018-02-24T14:56:12.933Z,4.30
2018-02-24T14:58:39.438Z,4.40
2018-02-24T15:01:05.687Z,4.50
2018-02-24T15:03:31.848Z,4.60
2018-02-24T15:05:58.063Z,4.50
2018-02-24T15:08:24.275Z,4.60
2018-02-24T15:10:50.532Z,4.70
2018-02-24T15:13:16.716Z,4.20
2018-02-24T15:15:42.927Z,4.50
2018-02-24T15:18:09.129Z,4.50
2018-02-24T15:20:36.114Z,4.40
2018-02-24T15:23:02.361Z,4.40
2018-02-24T15:25:29.340Z,4.20
2018-02-24T15:27:55.579Z,4.20
2018-02-24T15:30:22.066Z,4.20
2018-02-24T15:32:48.368Z,4.10
2018-02-24T15:35:20.208Z,4.00
2018-02-24T15:37:46.675Z,3.70
2018-02-24T15:40:16.537Z,4.00
2018-02-24T15:42:42.789Z,4.10
2018-02-24T15:45:09.048Z,4.00
2018-02-24T15:47:35.323Z,3.70
2018-02-24T15:50:02.718Z,3.30
2018-02-24T15:52:29.937Z,3.10
2018-02-24T15:54:56.843Z,3.00
2018-02-24T15:57:23.104Z,3.00
2018-02-24T15:59:49.644Z,2.70
2018-02-24T16:02:15.851Z,2.70
2018-02-24T16:04:42.056Z,2.50
2018-02-24T16:07:08.510Z,2.50
2018-02-24T16:09:34.723Z,2.40
2018-02-24T16:12:00.925Z,2.20
2018-02-24T16:14:27.364Z,2.10
2018-02-24T16:16:53.604Z,2.00
2018-02-24T16:19:19.801Z,1.80
2018-02-24T16:21:46.205Z,1.80
2018-02-24T16:24:12.408Z,1.70
2018-02-24T16:26:43.925Z,1.80
2018-02-24T16:29:10.160Z,1.60
2018-02-24T16:31:37.171Z,1.50
2018-02-24T16:34:03.344Z,1.50
2018-02-24T16:36:29.721Z,1.40
2018-02-24T16:38:55.919Z,1.30
2018-02-24T16:41:22.159Z,1.30
2018-02-24T16:43:48.727Z,1.20
2018-02-24T16:46:15.964Z,1.20
2018-02-24T16:48:42.152Z,1.00
2018-02-24T16:51:08.852Z,1.00
2018-02-24T16:53:35.091Z,0.90
2018-02-24T16:56:01.464Z,0.90
2018-02-24T16:58:27.652Z,0.80
2018-02-24T17:00:54.824Z,0.70
2018-02-24T17:03:21.758Z,0.60
2018-02-24T17:05:47.919Z,0.60
2018-02-24T17:08:14.284Z,0.60
2018-02-24T17:10:40.444Z,0.60
2018-02-24T17:13:06.706Z,0.50
2018-02-24T17:15:33.177Z,0.50
2018-02-24T17:17:59.361Z,0.40
2018-02-24T17:20:26.654Z,0.40
2018-02-24T17:22:52.867Z,0.40
2018-02-24T17:25:25.672Z,0.30
2018-02-24T17:27:52.321Z,0.30
2018-02-24T17:30:18.565Z,0.60
2018-02-24T17:32:45.012Z,0.60
2018-02-24T17:35:11.192Z,0.60
2018-02-24T17:37:37.408Z,0.60
2018-02-24T17:40:03.800Z,0.40
2018-02-24T17:42:30.724Z,0.30
2018-02-24T17:44:56.913Z,0.30
2018-02-24T17:47:23.209Z,0.20
2018-02-24T17:49:49.411Z,0.20
2018-02-24T17:52:15.621Z,0.20
2018-02-24T17:54:42.095Z,0.10
2018-02-24T17:57:08.296Z,0.10
2018-02-24T17:59:35.245Z,0.10
2018-02-24T18:02:01.417Z,0.00
2018-02-24T18:04:27.740Z,0.00
2018-02-24T18:06:54.673Z,0.00
2018-02-24T18:09:20.924Z,0.00
2018-02-24T18:11:47.390Z,0.00
2018-02-24T18:14:14.390Z,-0.10
2018-02-24T18:16:40.578Z,-0.10
2018-02-24T18:19:06.868Z,-0.20
2018-02-24T18:21:33.025Z,-0.10
2018-02-24T18:24:00.069Z,-0.20
2018-02-24T18:26:26.296Z,-0.20
2018-02-24T18:28:52.685Z,-0.20
2018-02-24T18:31:19.753Z,-0.20
2018-02-24T18:33:45.918Z,-0.30
2018-02-24T18:36:12.366Z,-0.30
2018-02-24T18:38:39.363Z,-0.30
2018-02-24T18:41:05.617Z,-0.40
2018-02-24T18:43:31.808Z,-0.30
2018-02-24T18:45:58.855Z,-0.40
2018-02-24T18:48:26.295Z,-0.40
2018-02-24T18:50:52.512Z,-0.40
2018-02-24T18:53:18.689Z,-0.40
2018-02-24T18:55:44.997Z,-0.40
2018-02-24T18:58:11.226Z,-0.40
2018-02-24T19:00:37.518Z,-0.40
2018-02-24T19:03:03.737Z,-0.50
2018-02-24T19:05:29.924Z,-0.40
2018-02-24T19:07:56.212Z,-0.50
2018-02-24T19:10:23.061Z,-0.50
2018-02-24T19:12:50.153Z,-0.50
2018-02-24T19:15:16.416Z,-0.60
2018-02-24T19:17:42.848Z,-0.50
2018-02-24T19:20:09.109Z,-0.60
2018-02-24T19:22:36.100Z,-0.60
2018-02-24T19:25:02.341Z,-0.60
2018-02-24T19:27:28.636Z,-0.60
2018-02-24T19:29:54.900Z,-0.60
2018-02-24T19:32:21.093Z,-0.60
2018-02-24T19:34:47.582Z,-0.60
2018-02-24T19:37:14.552Z,-0.70
2018-02-24T19:39:40.736Z,-0.70
2018-02-24T19:42:07.214Z,-0.70
2018-02-24T19:44:34.280Z,-0.70
2018-02-24T19:47:00.453Z,-0.70
2018-02-24T19:49:26.658Z,-0.70
2018-02-24T19:51:53.942Z,-0.80
2018-02-24T19:54:21.098Z,-0.80
2018-02-24T19:56:47.359Z,-0.80
2018-02-24T19:59:13.672Z,-0.80
2018-02-24T20:01:41.339Z,-0.80
2018-02-24T20:04:08.361Z,-0.90
2018-02-24T20:06:34.573Z,-0.90
2018-02-24T20:09:00.821Z,-0.90
2018-02-24T20:11:27.018Z,-0.90
2018-02-24T20:13:54.035Z,-0.90
2018-02-24T20:16:20.988Z,-0.90
2018-02-24T20:18:47.293Z,-0.90
2018-02-24T20:21:14.233Z,-0.90
2018-02-24T20:23:40.437Z,-1.00
2018-02-24T20:26:06.753Z,-0.90
2018-02-24T20:28:32.964Z,-0.90
2018-02-24T20:30:59.229Z,-1.00
2018-02-24T20:33:26.148Z,-1.00
2018-02-24T20:35:52.530Z,-1.00
2018-02-24T20:38:18.726Z,-1.00
2018-02-24T20:40:44.998Z,-1.00
2018-02-24T20:43:11.639Z,-1.00
2018-02-24T20:45:38.573Z,-1.10
2018-02-24T20:48:04.798Z,-1.10
2018-02-24T20:50:31.314Z,-1.10
2018-02-24T20:52:57.629Z,-1.10
2018-02-24T20:55:23.835Z,-1.10
2018-02-24T20:57:50.111Z,-1.10
2018-02-24T21:00:17.226Z,-1.10
2018-02-24T21:02:43.603Z,-1.10
2018-02-24T21:05:09.841Z,-1.20
2018-02-24T21:07:38.188Z,-1.20
2018-02-24T21:10:04.641Z,-1.20
2018-02-24T21:12:30.840Z,-1.20
2018-02-24T21:14:57.024Z,-1.30
2018-02-24T21:17:23.436Z,-1.30
2018-02-24T21:19:49.720Z,-1.30
2018-02-24T21:22:15.925Z,-1.30
2018-02-24T21:24:42.435Z,-1.30
2018-02-24T21:27:08.736Z,-1.30
2018-02-24T21:29:35.032Z,-1.30
2018-02-24T21:32:01.401Z,-1.40
2018-02-24T21:34:28.546Z,-1.40
2018-02-24T21:36:54.716Z,-1.40
2018-02-24T21:39:20.917Z,-1.40
2018-02-24T21:41:47.301Z,-1.40
2018-02-24T21:44:13.478Z,-1.40
2018-02-24T21:46:39.755Z,-1.50
2018-02-24T21:49:06.088Z,-1.50
2018-02-24T21:51:32.296Z,-1.50
2018-02-24T21:53:58.531Z,-1.50
2018-02-24T21:56:24.989Z,-1.50
2018-02-24T21:58:51.199Z,-1.60
2018-02-24T22:01:17.536Z,-1.60
2018-02-24T22:03:43.795Z,-1.60
2018-02-24T22:06:09.984Z,-1.60
2018-02-24T22:08:36.220Z,-1.70
2018-02-24T22:11:02.477Z,-1.70
2018-02-24T22:13:29.473Z,-1.70
2018-02-24T22:15:55.741Z,-1.70
2018-02-24T22:18:22.008Z,-1.70
2018-02-24T22:20:48.223Z,-1.80
2018-02-24T22:23:14.576Z,-1.80
2018-02-24T22:25:40.933Z,-1.80
2018-02-24T22:28:08.084Z,-1.80
2018-02-24T22:30:34.288Z,-1.80
2018-02-24T22:33:01.220Z,-1.90
2018-02-24T22:35:28.192Z,-1.90
2018-02-24T22:37:54.468Z,-1.90
2018-02-24T22:40:20.673Z,-1.90
2018-02-24T22:42:46.862Z,-1.90
2018-02-24T22:45:13.811Z,-2.00
2018-02-24T22:47:46.163Z,-2.00
2018-02-24T22:50:12.450Z,-2.00
2018-02-24T22:52:38.730Z,-2.00
2018-02-24T22:55:04.974Z,-2.00
2018-02-24T22:57:31.160Z,-2.00
2018-02-24T22:59:57.385Z,-2.10
2018-02-24T23:02:23.640Z,-2.10
2018-02-24T23:04:49.880Z,-2.10
2018-02-24T23:07:16.365Z,-2.10
2018-02-24T23:09:43.581Z,-2.10
2018-02-24T23:12:09.788Z,-2.10
2018-02-24T23:14:36.733Z,-2.20
2018-02-24T23:17:03.142Z,-2.20
2018-02-24T23:19:29.352Z,-2.20
2018-02-24T23:21:55.640Z,-2.30
2018-02-24T23:24:22.045Z,-2.30
2018-02-24T23:26:48.265Z,-2.30
2018-02-24T23:29:14.502Z,-2.40
2018-02-24T23:31:41.458Z,-2.40
2018-02-24T23:34:07.697Z,-2.40
2018-02-24T23:36:34.648Z,-2.40
2018-02-24T23:39:00.869Z,-2.50
2018-02-24T23:41:27.175Z,-2.50
2018-02-24T23:43:53.425Z,-2.50
2018-02-24T23:46:19.641Z,-2.50
2018-02-24T23:48:45.963Z,-2.50
2018-02-24T23:51:12.241Z,-2.50
2018-02-24T23:53:38.680Z,-2.50
2018-02-24T23:56:05.047Z,-2.60
2018-02-24T23:58:31.257Z,-2.60
